sensor_id;sensor_type;location;lat;lon;timestamp;temperature;humidity
68026;SHT31;54819;48.030;14.710;2023-04-01T00:01:03;10.45;66.94
68026;SHT31;54819;48.030;14.710;2023-04-01T00:03:32;10.45;67.06
68026;SHT31;54819;48.030;14.710;2023-04-01T00:06:00;10.42;67.09
68026;SHT31;54819;48.030;14.710;2023-04-01T00:08:28;10.42;67.03
68026;SHT31;54819;48.030;14.710;2023-04-01T00:10:55;10.42;66.92
68026;SHT31;54819;48.030;14.710;2023-04-01T00:13:24;10.46;67.12
68026;SHT31;54819;48.030;14.710;2023-04-01T00:15:53;10.48;66.90
68026;SHT31;54819;48.030;14.710;2023-04-01T00:18:22;10.52;66.52
68026;SHT31;54819;48.030;14.710;2023-04-01T00:20:51;10.55;66.40
68026;SHT31;54819;48.030;14.710;2023-04-01T00:23:18;10.57;65.75
68026;SHT31;54819;48.030;14.710;2023-04-01T00:25:46;10.59;66.22
68026;SHT31;54819;48.030;14.710;2023-04-01T00:28:18;10.58;66.15
68026;SHT31;54819;48.030;14.710;2023-04-01T00:30:46;10.56;66.39
68026;SHT31;54819;48.030;14.710;2023-04-01T00:33:13;10.47;67.27
68026;SHT31;54819;48.030;14.710;2023-04-01T00:35:41;10.45;67.21
68026;SHT31;54819;48.030;14.710;2023-04-01T00:38:08;10.42;67.53
68026;SHT31;54819;48.030;14.710;2023-04-01T00:40:38;10.37;67.28
68026;SHT31;54819;48.030;14.710;2023-04-01T00:43:25;10.35;67.46
68026;SHT31;54819;48.030;14.710;2023-04-01T00:45:52;10.30;68.02
68026;SHT31;54819;48.030;14.710;2023-04-01T00:48:20;10.25;68.35
68026;SHT31;54819;48.030;14.710;2023-04-01T00:51:17;10.21;68.47
68026;SHT31;54819;48.030;14.710;2023-04-01T00:53:50;10.19;69.73
68026;SHT31;54819;48.030;14.710;2023-04-01T00:56:22;10.18;69.59
68026;SHT31;54819;48.030;14.710;2023-04-01T00:59:04;10.20;69.11
68026;SHT31;54819;48.030;14.710;2023-04-01T01:01:37;10.22;68.77
68026;SHT31;54819;48.030;14.710;2023-04-01T01:04:04;10.26;68.28
68026;SHT31;54819;48.030;14.710;2023-04-01T01:06:49;10.28;67.91
68026;SHT31;54819;48.030;14.710;2023-04-01T01:12:14;10.30;66.69
68026;SHT31;54819;48.030;14.710;2023-04-01T01:38:32;10.05;69.88
68026;SHT31;54819;48.030;14.710;2023-04-01T01:41:03;10.05;70.09
68026;SHT31;54819;48.030;14.710;2023-04-01T01:43:35;10.03;70.94
68026;SHT31;54819;48.030;14.710;2023-04-01T01:46:13;10.03;71.03
68026;SHT31;54819;48.030;14.710;2023-04-01T01:48:46;10.03;71.50
68026;SHT31;54819;48.030;14.710;2023-04-01T01:51:15;10.02;71.44
68026;SHT31;54819;48.030;14.710;2023-04-01T01:53:43;10.01;71.52
68026;SHT31;54819;48.030;14.710;2023-04-01T01:56:10;10.00;71.86
68026;SHT31;54819;48.030;14.710;2023-04-01T01:58:44;9.98;72.12
68026;SHT31;54819;48.030;14.710;2023-04-01T02:01:20;9.96;72.28
68026;SHT31;54819;48.030;14.710;2023-04-01T02:03:55;9.95;72.38
68026;SHT31;54819;48.030;14.710;2023-04-01T02:06:26;9.93;72.87
68026;SHT31;54819;48.030;14.710;2023-04-01T02:09:02;9.89;74.31
68026;SHT31;54819;48.030;14.710;2023-04-01T02:14:18;9.87;72.58
68026;SHT31;54819;48.030;14.710;2023-04-01T02:17:07;9.87;71.86
68026;SHT31;54819;48.030;14.710;2023-04-01T02:19:39;9.89;71.46
68026;SHT31;54819;48.030;14.710;2023-04-01T02:22:40;9.89;71.62
68026;SHT31;54819;48.030;14.710;2023-04-01T02:25:12;9.88;71.41
68026;SHT31;54819;48.030;14.710;2023-04-01T02:27:45;9.84;71.43
68026;SHT31;54819;48.030;14.710;2023-04-01T02:30:14;9.79;71.67
68026;SHT31;54819;48.030;14.710;2023-04-01T02:32:42;9.71;72.08
68026;SHT31;54819;48.030;14.710;2023-04-01T02:35:11;9.69;72.02
68026;SHT31;54819;48.030;14.710;2023-04-01T02:37:42;9.66;72.25
68026;SHT31;54819;48.030;14.710;2023-04-01T02:40:12;9.65;72.16
68026;SHT31;54819;48.030;14.710;2023-04-01T02:42:40;9.65;72.23
68026;SHT31;54819;48.030;14.710;2023-04-01T02:45:08;9.68;72.23
68026;SHT31;54819;48.030;14.710;2023-04-01T02:47:35;9.72;72.12
68026;SHT31;54819;48.030;14.710;2023-04-01T02:50:02;9.73;71.81
68026;SHT31;54819;48.030;14.710;2023-04-01T02:52:30;9.78;71.54
68026;SHT31;54819;48.030;14.710;2023-04-01T02:54:57;9.81;71.39
68026;SHT31;54819;48.030;14.710;2023-04-01T02:57:24;9.79;71.37
68026;SHT31;54819;48.030;14.710;2023-04-01T02:59:52;9.80;71.18
68026;SHT31;54819;48.030;14.710;2023-04-01T03:02:19;9.80;70.84
68026;SHT31;54819;48.030;14.710;2023-04-01T03:04:46;9.80;70.88
68026;SHT31;54819;48.030;14.710;2023-04-01T03:07:12;9.80;70.74
68026;SHT31;54819;48.030;14.710;2023-04-01T03:09:39;9.77;70.83
68026;SHT31;54819;48.030;14.710;2023-04-01T03:12:06;9.76;70.85
68026;SHT31;54819;48.030;14.710;2023-04-01T03:14:36;9.76;70.89
68026;SHT31;54819;48.030;14.710;2023-04-01T03:17:02;9.74;70.87
68026;SHT31;54819;48.030;14.710;2023-04-01T03:19:29;9.76;70.90
68026;SHT31;54819;48.030;14.710;2023-04-01T03:21:57;9.79;70.82
68026;SHT31;54819;48.030;14.710;2023-04-01T03:24:23;9.81;70.77
68026;SHT31;54819;48.030;14.710;2023-04-01T03:26:50;9.82;70.79
68026;SHT31;54819;48.030;14.710;2023-04-01T03:29:17;9.83;70.80
68026;SHT31;54819;48.030;14.710;2023-04-01T03:31:44;9.83;70.64
68026;SHT31;54819;48.030;14.710;2023-04-01T03:34:11;9.83;70.57
68026;SHT31;54819;48.030;14.710;2023-04-01T03:36:38;9.81;70.50
68026;SHT31;54819;48.030;14.710;2023-04-01T03:39:05;9.80;70.01
68026;SHT31;54819;48.030;14.710;2023-04-01T03:41:36;9.80;70.26
68026;SHT31;54819;48.030;14.710;2023-04-01T03:44:04;9.81;70.26
68026;SHT31;54819;48.030;14.710;2023-04-01T03:46:31;9.81;70.10
68026;SHT31;54819;48.030;14.710;2023-04-01T03:48:58;9.82;69.98
68026;SHT31;54819;48.030;14.710;2023-04-01T03:51:25;9.82;69.71
68026;SHT31;54819;48.030;14.710;2023-04-01T03:53:52;9.85;69.85
68026;SHT31;54819;48.030;14.710;2023-04-01T03:56:18;9.88;69.54
68026;SHT31;54819;48.030;14.710;2023-04-01T03:58:45;9.92;69.54
68026;SHT31;54819;48.030;14.710;2023-04-01T04:01:16;9.96;69.48
68026;SHT31;54819;48.030;14.710;2023-04-01T04:03:48;9.99;69.21
68026;SHT31;54819;48.030;14.710;2023-04-01T04:06:17;9.97;69.19
68026;SHT31;54819;48.030;14.710;2023-04-01T04:08:45;9.93;70.49
68026;SHT31;54819;48.030;14.710;2023-04-01T04:11:13;9.86;71.30
68026;SHT31;54819;48.030;14.710;2023-04-01T04:13:40;9.74;72.13
68026;SHT31;54819;48.030;14.710;2023-04-01T04:16:07;9.61;73.33
68026;SHT31;54819;48.030;14.710;2023-04-01T04:18:38;9.48;74.37
68026;SHT31;54819;48.030;14.710;2023-04-01T04:21:05;9.39;74.57
68026;SHT31;54819;48.030;14.710;2023-04-01T04:23:32;9.32;75.11
68026;SHT31;54819;48.030;14.710;2023-04-01T04:26:01;9.27;75.64
68026;SHT31;54819;48.030;14.710;2023-04-01T04:28:34;9.23;75.68
68026;SHT31;54819;48.030;14.710;2023-04-01T04:31:03;9.17;75.83
68026;SHT31;54819;48.030;14.710;2023-04-01T04:33:34;9.15;76.10
68026;SHT31;54819;48.030;14.710;2023-04-01T04:36:03;9.12;76.30
68026;SHT31;54819;48.030;14.710;2023-04-01T04:38:31;9.08;76.22
68026;SHT31;54819;48.030;14.710;2023-04-01T04:40:58;9.07;75.87
68026;SHT31;54819;48.030;14.710;2023-04-01T04:43:25;9.09;75.90
68026;SHT31;54819;48.030;14.710;2023-04-01T04:45:51;9.10;75.94
68026;SHT31;54819;48.030;14.710;2023-04-01T04:48:18;9.14;76.04
68026;SHT31;54819;48.030;14.710;2023-04-01T04:50:47;9.18;75.96
68026;SHT31;54819;48.030;14.710;2023-04-01T04:53:17;9.23;75.66
68026;SHT31;54819;48.030;14.710;2023-04-01T04:55:46;9.27;75.17
68026;SHT31;54819;48.030;14.710;2023-04-01T04:58:31;9.31;74.56
68026;SHT31;54819;48.030;14.710;2023-04-01T05:00:58;9.34;74.13
68026;SHT31;54819;48.030;14.710;2023-04-01T05:03:28;9.36;73.85
68026;SHT31;54819;48.030;14.710;2023-04-01T05:05:55;9.35;73.64
68026;SHT31;54819;48.030;14.710;2023-04-01T05:08:23;9.34;73.76
68026;SHT31;54819;48.030;14.710;2023-04-01T05:10:49;9.34;73.44
68026;SHT31;54819;48.030;14.710;2023-04-01T05:13:16;9.36;73.30
68026;SHT31;54819;48.030;14.710;2023-04-01T05:15:45;9.39;73.05
68026;SHT31;54819;48.030;14.710;2023-04-01T05:18:12;9.45;73.13
68026;SHT31;54819;48.030;14.710;2023-04-01T05:20:38;9.48;73.21
68026;SHT31;54819;48.030;14.710;2023-04-01T05:23:05;9.51;72.72
68026;SHT31;54819;48.030;14.710;2023-04-01T05:25:32;9.54;72.74
68026;SHT31;54819;48.030;14.710;2023-04-01T05:27:59;9.57;72.23
68026;SHT31;54819;48.030;14.710;2023-04-01T05:30:26;9.59;72.14
68026;SHT31;54819;48.030;14.710;2023-04-01T05:33:02;9.63;71.70
68026;SHT31;54819;48.030;14.710;2023-04-01T05:35:29;9.67;71.53
68026;SHT31;54819;48.030;14.710;2023-04-01T05:37:56;9.69;71.28
68026;SHT31;54819;48.030;14.710;2023-04-01T05:40:23;9.72;71.22
68026;SHT31;54819;48.030;14.710;2023-04-01T05:42:49;9.75;71.06
68026;SHT31;54819;48.030;14.710;2023-04-01T05:45:16;9.81;71.19
68026;SHT31;54819;48.030;14.710;2023-04-01T05:48:02;9.88;70.94
68026;SHT31;54819;48.030;14.710;2023-04-01T05:50:34;9.93;70.55
68026;SHT31;54819;48.030;14.710;2023-04-01T05:53:01;9.98;70.17
68026;SHT31;54819;48.030;14.710;2023-04-01T05:55:28;10.01;70.24
68026;SHT31;54819;48.030;14.710;2023-04-01T05:57:54;10.03;69.62
68026;SHT31;54819;48.030;14.710;2023-04-01T06:00:21;10.02;69.72
68026;SHT31;54819;48.030;14.710;2023-04-01T06:02:48;10.02;69.87
68026;SHT31;54819;48.030;14.710;2023-04-01T06:05:22;10.06;69.93
68026;SHT31;54819;48.030;14.710;2023-04-01T06:07:55;10.10;70.07
68026;SHT31;54819;48.030;14.710;2023-04-01T06:10:39;10.14;69.92
68026;SHT31;54819;48.030;14.710;2023-04-01T06:13:47;10.18;69.94
68026;SHT31;54819;48.030;14.710;2023-04-01T06:22:27;10.39;69.72
68026;SHT31;54819;48.030;14.710;2023-04-01T06:25:33;10.48;69.03
68026;SHT31;54819;48.030;14.710;2023-04-01T06:34:51;10.60;69.13
68026;SHT31;54819;48.030;14.710;2023-04-01T06:40:31;10.68;69.24
68026;SHT31;54819;48.030;14.710;2023-04-01T06:56:48;11.20;67.62
68026;SHT31;54819;48.030;14.710;2023-04-01T06:59:27;11.22;67.31
68026;SHT31;54819;48.030;14.710;2023-04-01T07:02:04;11.21;67.37
68026;SHT31;54819;48.030;14.710;2023-04-01T07:04:40;11.31;67.45
68026;SHT31;54819;48.030;14.710;2023-04-01T07:10:11;11.50;66.83
68026;SHT31;54819;48.030;14.710;2023-04-01T07:13:05;11.63;66.26
68026;SHT31;54819;48.030;14.710;2023-04-01T07:19:01;11.78;65.68
68026;SHT31;54819;48.030;14.710;2023-04-01T07:22:05;11.83;65.32
68026;SHT31;54819;48.030;14.710;2023-04-01T07:25:22;11.88;65.16
68026;SHT31;54819;48.030;14.710;2023-04-01T07:28:12;12.04;65.63
68026;SHT31;54819;48.030;14.710;2023-04-01T07:37:08;12.21;63.93
68026;SHT31;54819;48.030;14.710;2023-04-01T07:42:40;12.25;64.02
68026;SHT31;54819;48.030;14.710;2023-04-01T07:48:46;12.39;63.43
68026;SHT31;54819;48.030;14.710;2023-04-01T07:54:31;12.44;63.28
68026;SHT31;54819;48.030;14.710;2023-04-01T08:03:21;12.69;62.37
68026;SHT31;54819;48.030;14.710;2023-04-01T08:06:37;12.83;61.89
68026;SHT31;54819;48.030;14.710;2023-04-01T08:09:19;12.91;61.07
68026;SHT31;54819;48.030;14.710;2023-04-01T08:15:34;13.05;61.28
68026;SHT31;54819;48.030;14.710;2023-04-01T08:21:17;13.23;60.52
68026;SHT31;54819;48.030;14.710;2023-04-01T08:23:57;13.23;60.09
68026;SHT31;54819;48.030;14.710;2023-04-01T08:26:35;13.24;60.45
68026;SHT31;54819;48.030;14.710;2023-04-01T08:32:18;13.21;60.43
68026;SHT31;54819;48.030;14.710;2023-04-01T08:34:58;13.29;60.69
68026;SHT31;54819;48.030;14.710;2023-04-01T08:37:56;13.31;60.57
68026;SHT31;54819;48.030;14.710;2023-04-01T08:40:35;13.34;60.44
68026;SHT31;54819;48.030;14.710;2023-04-01T08:44:04;13.20;59.35
68026;SHT31;54819;48.030;14.710;2023-04-01T08:59:36;13.37;58.34
68026;SHT31;54819;48.030;14.710;2023-04-01T09:03:25;13.37;58.71
68026;SHT31;54819;48.030;14.710;2023-04-01T09:12:54;13.05;58.19
68026;SHT31;54819;48.030;14.710;2023-04-01T09:21:41;13.20;57.60
68026;SHT31;54819;48.030;14.710;2023-04-01T09:44:57;13.46;55.36
68026;SHT31;54819;48.030;14.710;2023-04-01T09:50:52;13.59;56.56
68026;SHT31;54819;48.030;14.710;2023-04-01T09:59:49;13.63;55.88
68026;SHT31;54819;48.030;14.710;2023-04-01T10:12:11;13.81;56.42
68026;SHT31;54819;48.030;14.710;2023-04-01T10:46:41;15.17;53.57
68026;SHT31;54819;48.030;14.710;2023-04-01T11:08:49;15.19;52.21
68026;SHT31;54819;48.030;14.710;2023-04-01T11:29:36;15.07;51.32
68026;SHT31;54819;48.030;14.710;2023-04-01T11:32:41;15.27;50.85
68026;SHT31;54819;48.030;14.710;2023-04-01T11:35:49;15.45;51.34
68026;SHT31;54819;48.030;14.710;2023-04-01T11:41:43;15.42;51.26
68026;SHT31;54819;48.030;14.710;2023-04-01T11:44:55;15.29;51.52
68026;SHT31;54819;48.030;14.710;2023-04-01T11:47:49;15.22;51.18
68026;SHT31;54819;48.030;14.710;2023-04-01T11:50:53;15.20;51.00
68026;SHT31;54819;48.030;14.710;2023-04-01T12:11:17;15.31;51.30
68026;SHT31;54819;48.030;14.710;2023-04-01T12:14:00;15.45;50.37
68026;SHT31;54819;48.030;14.710;2023-04-01T12:16:58;15.57;50.88
68026;SHT31;54819;48.030;14.710;2023-04-01T12:19:50;15.55;50.82
68026;SHT31;54819;48.030;14.710;2023-04-01T12:22:40;15.44;50.68
68026;SHT31;54819;48.030;14.710;2023-04-01T12:25:35;15.40;51.43
68026;SHT31;54819;48.030;14.710;2023-04-01T12:49:42;15.94;48.98
68026;SHT31;54819;48.030;14.710;2023-04-01T12:55:35;15.85;48.82
68026;SHT31;54819;48.030;14.710;2023-04-01T12:58:24;16.11;49.46
68026;SHT31;54819;48.030;14.710;2023-04-01T13:10:27;15.89;48.93
68026;SHT31;54819;48.030;14.710;2023-04-01T13:16:50;14.06;61.08
68026;SHT31;54819;48.030;14.710;2023-04-01T13:34:20;13.50;67.29
68026;SHT31;54819;48.030;14.710;2023-04-01T13:40:15;13.76;66.37
68026;SHT31;54819;48.030;14.710;2023-04-01T13:46:12;14.06;66.42
68026;SHT31;54819;48.030;14.710;2023-04-01T13:51:50;14.20;66.21
68026;SHT31;54819;48.030;14.710;2023-04-01T14:09:20;14.61;65.06
68026;SHT31;54819;48.030;14.710;2023-04-01T14:18:05;14.55;64.07
68026;SHT31;54819;48.030;14.710;2023-04-01T14:27:00;14.35;64.58
68026;SHT31;54819;48.030;14.710;2023-04-01T14:29:37;14.44;64.01
68026;SHT31;54819;48.030;14.710;2023-04-01T14:38:06;13.84;65.85
68026;SHT31;54819;48.030;14.710;2023-04-01T14:49:32;13.94;68.46
68026;SHT31;54819;48.030;14.710;2023-04-01T14:52:06;13.90;69.09
68026;SHT31;54819;48.030;14.710;2023-04-01T14:54:44;13.85;69.21
68026;SHT31;54819;48.030;14.710;2023-04-01T14:57:20;13.82;69.69
68026;SHT31;54819;48.030;14.710;2023-04-01T15:09:02;14.00;70.45
68026;SHT31;54819;48.030;14.710;2023-04-01T15:20:36;13.74;69.45
68026;SHT31;54819;48.030;14.710;2023-04-01T15:23:34;13.54;69.44
68026;SHT31;54819;48.030;14.710;2023-04-01T15:26:19;12.92;69.40
68026;SHT31;54819;48.030;14.710;2023-04-01T15:44:33;12.03;72.51
68026;SHT31;54819;48.030;14.710;2023-04-01T15:55:31;11.65;73.66
68026;SHT31;54819;48.030;14.710;2023-04-01T16:01:48;11.73;74.25
68026;SHT31;54819;48.030;14.710;2023-04-01T16:04:31;11.80;74.46
68026;SHT31;54819;48.030;14.710;2023-04-01T16:14:31;11.93;74.04
68026;SHT31;54819;48.030;14.710;2023-04-01T16:22:32;11.72;73.54
68026;SHT31;54819;48.030;14.710;2023-04-01T16:28:31;11.63;73.30
68026;SHT31;54819;48.030;14.710;2023-04-01T16:31:12;11.57;72.56
68026;SHT31;54819;48.030;14.710;2023-04-01T16:34:08;11.45;72.41
68026;SHT31;54819;48.030;14.710;2023-04-01T16:36:47;11.31;72.41
68026;SHT31;54819;48.030;14.710;2023-04-01T16:40:09;11.19;71.98
68026;SHT31;54819;48.030;14.710;2023-04-01T16:45:37;11.05;71.97
68026;SHT31;54819;48.030;14.710;2023-04-01T16:48:12;10.99;71.72
68026;SHT31;54819;48.030;14.710;2023-04-01T16:51:04;10.95;71.94
68026;SHT31;54819;48.030;14.710;2023-04-01T16:53:42;10.90;72.12
68026;SHT31;54819;48.030;14.710;2023-04-01T16:56:16;10.85;71.60
68026;SHT31;54819;48.030;14.710;2023-04-01T17:01:44;10.84;71.84
68026;SHT31;54819;48.030;14.710;2023-04-01T17:07:33;10.74;72.01
68026;SHT31;54819;48.030;14.710;2023-04-01T17:25:37;10.34;74.60
68026;SHT31;54819;48.030;14.710;2023-04-01T17:30:39;10.23;75.05
68026;SHT31;54819;48.030;14.710;2023-04-01T17:34:00;10.18;75.13
68026;SHT31;54819;48.030;14.710;2023-04-01T17:39:35;10.10;75.09
68026;SHT31;54819;48.030;14.710;2023-04-01T17:42:16;10.04;75.17
68026;SHT31;54819;48.030;14.710;2023-04-01T17:44:57;10.06;75.56
68026;SHT31;54819;48.030;14.710;2023-04-01T17:47:40;10.02;76.01
68026;SHT31;54819;48.030;14.710;2023-04-01T17:59:02;9.93;75.65
68026;SHT31;54819;48.030;14.710;2023-04-01T18:07:54;9.87;75.77
68026;SHT31;54819;48.030;14.710;2023-04-01T18:14:02;9.88;74.55
68026;SHT31;54819;48.030;14.710;2023-04-01T18:23:29;9.83;73.60
68026;SHT31;54819;48.030;14.710;2023-04-01T18:25:53;9.82;73.79
68026;SHT31;54819;48.030;14.710;2023-04-01T18:33:34;9.82;73.85
68026;SHT31;54819;48.030;14.710;2023-04-01T18:39:07;9.85;72.74
68026;SHT31;54819;48.030;14.710;2023-04-01T18:42:07;9.89;73.20
68026;SHT31;54819;48.030;14.710;2023-04-01T18:44:59;9.90;72.78
68026;SHT31;54819;48.030;14.710;2023-04-01T18:47:59;9.92;73.05
68026;SHT31;54819;48.030;14.710;2023-04-01T18:50:58;9.90;72.86
68026;SHT31;54819;48.030;14.710;2023-04-01T18:53:49;9.89;72.46
68026;SHT31;54819;48.030;14.710;2023-04-01T18:56:32;9.88;72.69
68026;SHT31;54819;48.030;14.710;2023-04-01T19:05:05;9.92;72.62
68026;SHT31;54819;48.030;14.710;2023-04-01T19:36:24;9.84;73.95
68026;SHT31;54819;48.030;14.710;2023-04-01T19:39:15;9.81;73.71
68026;SHT31;54819;48.030;14.710;2023-04-01T19:50:40;9.72;73.18
68026;SHT31;54819;48.030;14.710;2023-04-01T19:56:18;9.73;73.46
68026;SHT31;54819;48.030;14.710;2023-04-01T19:58:54;9.76;73.31
68026;SHT31;54819;48.030;14.710;2023-04-01T20:01:35;9.77;73.28
68026;SHT31;54819;48.030;14.710;2023-04-01T20:04:31;9.80;73.12
68026;SHT31;54819;48.030;14.710;2023-04-01T20:07:09;9.80;73.06
68026;SHT31;54819;48.030;14.710;2023-04-01T20:15:36;9.76;73.08
68026;SHT31;54819;48.030;14.710;2023-04-01T20:18:15;9.74;73.14
68026;SHT31;54819;48.030;14.710;2023-04-01T20:20:55;9.71;73.09
68026;SHT31;54819;48.030;14.710;2023-04-01T20:26:33;9.76;73.12
68026;SHT31;54819;48.030;14.710;2023-04-01T20:29:27;9.78;72.99
68026;SHT31;54819;48.030;14.710;2023-04-01T20:37:35;9.77;72.45
68026;SHT31;54819;48.030;14.710;2023-04-01T20:52:42;9.83;71.61
68026;SHT31;54819;48.030;14.710;2023-04-01T21:04:22;9.89;70.84
68026;SHT31;54819;48.030;14.710;2023-04-01T21:15:39;9.87;70.97
68026;SHT31;54819;48.030;14.710;2023-04-01T21:41:22;9.63;72.79
68026;SHT31;54819;48.030;14.710;2023-04-01T21:44:17;9.62;72.55
68026;SHT31;54819;48.030;14.710;2023-04-01T21:54:07;9.71;71.68
68026;SHT31;54819;48.030;14.710;2023-04-01T21:57:13;9.73;71.42
68026;SHT31;54819;48.030;14.710;2023-04-01T22:06:39;9.75;71.03
68026;SHT31;54819;48.030;14.710;2023-04-01T22:15:09;9.80;70.83
68026;SHT31;54819;48.030;14.710;2023-04-01T22:18:22;9.84;70.41
68026;SHT31;54819;48.030;14.710;2023-04-01T22:27:26;9.94;69.76
68026;SHT31;54819;48.030;14.710;2023-04-01T22:32:46;9.94;70.33
68026;SHT31;54819;48.030;14.710;2023-04-01T22:35:46;9.94;69.87
68026;SHT31;54819;48.030;14.710;2023-04-01T22:48:02;9.96;69.65
68026;SHT31;54819;48.030;14.710;2023-04-01T22:51:18;9.95;70.11
68026;SHT31;54819;48.030;14.710;2023-04-01T22:54:47;9.98;70.05
68026;SHT31;54819;48.030;14.710;2023-04-01T23:00:13;10.01;69.57
68026;SHT31;54819;48.030;14.710;2023-04-01T23:03:02;10.02;69.41
68026;SHT31;54819;48.030;14.710;2023-04-01T23:06:01;10.00;69.47
68026;SHT31;54819;48.030;14.710;2023-04-01T23:19:44;9.88;70.91
68026;SHT31;54819;48.030;14.710;2023-04-01T23:22:29;9.85;71.98
68026;SHT31;54819;48.030;14.710;2023-04-01T23:25:50;9.82;72.95
68026;SHT31;54819;48.030;14.710;2023-04-01T23:31:29;9.69;73.90
68026;SHT31;54819;48.030;14.710;2023-04-01T23:34:03;9.60;74.06
68026;SHT31;54819;48.030;14.710;2023-04-01T23:36:56;9.54;74.25
68026;SHT31;54819;48.030;14.710;2023-04-01T23:39:32;9.48;74.37
68026;SHT31;54819;48.030;14.710;2023-04-01T23:42:04;9.42;74.75
68026;SHT31;54819;48.030;14.710;2023-04-01T23:44:39;9.39;74.86
68026;SHT31;54819;48.030;14.710;2023-04-01T23:47:08;9.36;75.54
68026;SHT31;54819;48.030;14.710;2023-04-01T23:49:44;9.31;75.96
68026;SHT31;54819;48.030;14.710;2023-04-01T23:52:25;9.31;76.31
68026;SHT31;54819;48.030;14.710;2023-04-01T23:57:40;9.22;76.67
